createdAt,value
2023-05-04T00:01:37.172Z,16.33
2023-05-04T00:04:05.848Z,17.60
2023-05-04T00:06:34.951Z,15.70
2023-05-04T00:09:04.129Z,15.90
2023-05-04T00:11:34.859Z,16.70
2023-05-04T00:14:03.346Z,14.80
2023-05-04T00:16:32.003Z,16.60
2023-05-04T00:19:00.644Z,14.30
2023-05-04T00:21:29.219Z,14.70
2023-05-04T00:23:57.807Z,15.57
2023-05-04T00:26:26.324Z,14.67
2023-05-04T00:28:56.427Z,13.73
2023-05-04T00:31:25.034Z,13.87
2023-05-04T00:33:53.825Z,14.43
2023-05-04T00:36:22.393Z,14.07
2023-05-04T00:38:51.714Z,13.77
2023-05-04T00:41:21.518Z,14.27
2023-05-04T00:43:50.227Z,14.07
2023-05-04T00:46:20.253Z,14.20
2023-05-04T00:48:51.797Z,13.37
2023-05-04T00:51:21.778Z,12.70
2023-05-04T00:53:51.119Z,13.17
2023-05-04T00:56:20.212Z,13.83
2023-05-04T00:58:48.740Z,14.97
2023-05-04T01:01:17.467Z,14.17
2023-05-04T01:03:47.766Z,14.57
2023-05-04T01:06:26.147Z,12.90
2023-05-04T01:09:00.427Z,14.67
2023-05-04T01:11:38.565Z,15.30
2023-05-04T01:14:08.716Z,16.53
2023-05-04T01:16:37.754Z,16.70
2023-05-04T01:19:07.964Z,15.43
2023-05-04T01:21:39.395Z,16.20
2023-05-04T01:24:08.636Z,15.80
2023-05-04T01:26:42.220Z,14.97
2023-05-04T01:29:17.734Z,15.07
2023-05-04T01:31:47.482Z,14.17
2023-05-04T01:34:18.068Z,13.37
2023-05-04T01:36:48.573Z,15.03
2023-05-04T01:39:17.448Z,14.43
2023-05-04T01:41:46.237Z,14.33
2023-05-04T01:44:15.089Z,13.53
2023-05-04T01:46:43.840Z,14.30
2023-05-04T01:49:12.368Z,14.70
2023-05-04T01:51:40.715Z,14.93
2023-05-04T01:54:10.590Z,14.50
2023-05-04T01:56:39.144Z,15.00
2023-05-04T01:59:07.560Z,14.80
2023-05-04T02:01:36.848Z,15.40
2023-05-04T02:04:06.262Z,14.97
2023-05-04T02:06:34.901Z,14.50
2023-05-04T02:09:03.749Z,14.23
2023-05-04T02:11:34.162Z,14.23
2023-05-04T02:14:02.890Z,14.77
2023-05-04T02:16:31.789Z,15.17
2023-05-04T02:19:06.650Z,14.57
2023-05-04T02:21:35.395Z,14.13
2023-05-04T02:24:06.617Z,14.13
2023-05-04T02:26:37.215Z,13.83
2023-05-04T02:29:06.432Z,14.10
2023-05-04T02:31:35.483Z,15.00
2023-05-04T02:34:04.063Z,13.87
2023-05-04T02:36:32.466Z,14.10
2023-05-04T02:39:01.534Z,15.70
2023-05-04T02:41:30.708Z,14.73
2023-05-04T02:44:01.064Z,15.03
2023-05-04T02:46:29.547Z,13.57
2023-05-04T02:48:58.112Z,14.90
2023-05-04T02:51:27.044Z,14.37
2023-05-04T02:53:55.538Z,14.13
2023-05-04T02:56:24.515Z,14.23
2023-05-04T02:58:52.982Z,13.63
2023-05-04T03:01:23.017Z,14.57
2023-05-04T03:03:51.485Z,14.53
2023-05-04T03:06:20.108Z,14.63
2023-05-04T03:08:48.690Z,14.60
2023-05-04T03:11:17.394Z,13.97
2023-05-04T03:13:46.039Z,14.57
2023-05-04T03:16:14.906Z,13.67
2023-05-04T03:18:45.203Z,15.07
2023-05-04T03:21:13.769Z,15.13
2023-05-04T03:23:42.314Z,15.23
2023-05-04T03:26:10.936Z,14.90
2023-05-04T03:28:39.769Z,16.43
2023-05-04T03:31:08.233Z,16.10
2023-05-04T03:33:36.832Z,14.80
2023-05-04T03:36:07.831Z,16.40
2023-05-04T03:38:36.564Z,15.90
2023-05-04T03:41:04.970Z,15.97
2023-05-04T03:43:33.452Z,16.37
2023-05-04T03:46:01.958Z,18.83
2023-05-04T03:48:30.575Z,18.50
2023-05-04T03:50:59.518Z,18.27
2023-05-04T03:53:29.484Z,17.07
2023-05-04T03:55:57.928Z,16.83
2023-05-04T03:58:26.350Z,17.33
2023-05-04T04:00:55.059Z,16.93
2023-05-04T04:03:23.809Z,15.97
2023-05-04T04:05:52.460Z,15.87
2023-05-04T04:08:21.016Z,15.03
2023-05-04T04:10:51.597Z,14.30
2023-05-04T04:13:20.251Z,15.63
2023-05-04T04:15:52.334Z,15.13
2023-05-04T04:18:20.908Z,14.60
2023-05-04T04:20:49.896Z,13.70
2023-05-04T04:23:19.557Z,14.93
2023-05-04T04:25:48.553Z,14.30
2023-05-04T04:28:19.292Z,15.03
2023-05-04T04:30:48.440Z,14.50
2023-05-04T04:33:17.256Z,16.70
2023-05-04T04:35:46.454Z,17.00
2023-05-04T04:38:14.922Z,16.83
2023-05-04T04:40:43.631Z,18.83
2023-05-04T04:43:13.244Z,16.40
2023-05-04T04:45:43.220Z,16.43
2023-05-04T04:48:11.607Z,16.03
2023-05-04T04:50:40.991Z,16.03
2023-05-04T04:53:09.329Z,14.67
2023-05-04T04:55:38.777Z,14.87
2023-05-04T04:58:09.066Z,12.60
2023-05-04T05:00:37.777Z,12.50
2023-05-04T05:03:07.808Z,12.03
2023-05-04T05:05:36.270Z,12.17
2023-05-04T05:08:04.899Z,12.00
2023-05-04T05:10:33.282Z,11.80
2023-05-04T05:13:02.831Z,11.63
2023-05-04T05:15:31.840Z,10.63
2023-05-04T05:18:00.686Z,9.90
2023-05-04T05:20:31.077Z,10.60
2023-05-04T05:23:00.338Z,10.37
2023-05-04T05:25:28.877Z,9.93
2023-05-04T05:27:57.371Z,9.97
2023-05-04T05:30:28.450Z,9.03
2023-05-04T05:32:56.894Z,9.17
2023-05-04T05:35:25.316Z,9.20
2023-05-04T05:37:55.201Z,9.47
2023-05-04T05:40:24.044Z,9.83
2023-05-04T05:42:53.033Z,8.80
2023-05-04T05:45:21.567Z,10.20
2023-05-04T05:47:50.319Z,10.00
2023-05-04T05:50:19.689Z,10.80
2023-05-04T05:52:48.139Z,10.00
2023-05-04T05:55:18.552Z,8.83
2023-05-04T05:57:47.167Z,10.87
2023-05-04T06:00:17.055Z,9.83
2023-05-04T06:02:45.840Z,10.67
2023-05-04T06:05:14.419Z,9.53
2023-05-04T06:07:42.848Z,9.27
2023-05-04T06:10:12.234Z,9.77
2023-05-04T06:12:42.165Z,10.10
2023-05-04T06:15:12.439Z,10.63
2023-05-04T06:17:40.952Z,9.80
2023-05-04T06:20:11.627Z,9.07
2023-05-04T06:22:40.659Z,9.27
2023-05-04T06:25:10.065Z,8.00
2023-05-04T06:27:38.930Z,8.00
2023-05-04T06:30:11.673Z,8.47
2023-05-04T06:32:40.180Z,7.93
2023-05-04T06:35:11.161Z,7.77
2023-05-04T06:37:39.564Z,7.40
2023-05-04T06:40:09.701Z,7.50
2023-05-04T06:42:38.269Z,7.43
2023-05-04T06:45:09.408Z,6.67
2023-05-04T06:47:38.173Z,6.30
2023-05-04T06:50:10.926Z,5.40
2023-05-04T06:52:41.221Z,5.40
2023-05-04T06:55:10.032Z,4.60
2023-05-04T06:57:38.658Z,5.83
2023-05-04T07:00:12.346Z,5.60
2023-05-04T07:02:40.913Z,4.87
2023-05-04T07:05:10.112Z,5.00
2023-05-04T07:07:39.054Z,5.23
2023-05-04T07:10:08.510Z,4.47
2023-05-04T07:12:37.034Z,4.17
2023-05-04T07:15:06.967Z,3.70
2023-05-04T07:17:37.974Z,4.03
2023-05-04T07:20:07.837Z,4.43
2023-05-04T07:22:36.666Z,4.00
2023-05-04T07:25:05.825Z,4.10
2023-05-04T07:27:35.290Z,3.70
2023-05-04T07:30:04.494Z,3.67
2023-05-04T07:32:33.624Z,3.77
2023-05-04T07:35:03.493Z,3.20
2023-05-04T07:37:31.992Z,3.17
2023-05-04T07:40:01.671Z,3.53
2023-05-04T07:42:30.383Z,3.00
2023-05-04T07:44:59.076Z,3.33
2023-05-04T07:47:29.157Z,3.00
2023-05-04T07:49:58.147Z,2.80
2023-05-04T07:52:28.079Z,2.90
2023-05-04T07:54:57.119Z,3.07
2023-05-04T07:57:26.318Z,3.13
2023-05-04T07:59:56.129Z,3.57
2023-05-04T08:02:24.695Z,3.20
2023-05-04T08:04:53.317Z,3.40
2023-05-04T08:07:22.865Z,3.53
2023-05-04T08:09:56.092Z,2.90
2023-05-04T08:12:27.190Z,3.17
2023-05-04T08:14:55.700Z,2.90
2023-05-04T08:17:24.182Z,2.97
2023-05-04T08:19:52.729Z,2.33
2023-05-04T08:22:21.477Z,2.00
2023-05-04T08:24:50.414Z,2.50
2023-05-04T08:27:20.439Z,1.93
2023-05-04T08:29:48.948Z,2.03
2023-05-04T08:32:17.747Z,2.37
2023-05-04T08:34:46.254Z,2.40
2023-05-04T08:37:15.058Z,2.40
2023-05-04T08:39:43.838Z,2.43
2023-05-04T08:42:12.739Z,2.27
2023-05-04T08:44:43.933Z,2.20
2023-05-04T08:47:22.165Z,2.57
2023-05-04T08:49:51.176Z,2.10
2023-05-04T08:52:21.501Z,1.90
2023-05-04T08:54:51.402Z,2.03
2023-05-04T08:57:20.716Z,2.10
2023-05-04T08:59:54.119Z,2.20
2023-05-04T09:02:24.330Z,2.07
2023-05-04T09:04:53.770Z,1.87
2023-05-04T09:07:24.046Z,2.03
2023-05-04T09:09:53.309Z,1.80
2023-05-04T09:12:21.971Z,2.03
2023-05-04T09:14:52.119Z,1.90
2023-05-04T09:17:26.050Z,2.43
2023-05-04T09:20:01.430Z,3.00
2023-05-04T09:22:30.973Z,2.17
2023-05-04T09:25:08.872Z,1.83
2023-05-04T09:27:37.447Z,2.43
2023-05-04T09:30:09.414Z,1.90
2023-05-04T09:32:46.384Z,1.93
2023-05-04T09:35:29.190Z,2.03
2023-05-04T09:38:01.705Z,2.03
2023-05-04T09:40:34.679Z,2.10
2023-05-04T09:43:03.368Z,2.10
2023-05-04T09:45:43.022Z,1.70
2023-05-04T09:48:19.359Z,2.10
2023-05-04T09:50:53.080Z,2.10
2023-05-04T09:53:24.203Z,2.10
2023-05-04T09:56:09.903Z,2.03
2023-05-04T09:58:39.055Z,1.80
2023-05-04T10:01:09.722Z,1.80
2023-05-04T10:03:38.541Z,1.97
2023-05-04T10:06:09.322Z,1.80
2023-05-04T10:08:38.570Z,2.00
2023-05-04T10:11:07.711Z,2.07
2023-05-04T10:13:36.297Z,1.90
2023-05-04T10:16:14.583Z,2.20
2023-05-04T10:19:10.587Z,2.07
2023-05-04T10:21:50.243Z,1.93
2023-05-04T10:24:47.050Z,2.07
2023-05-04T10:27:18.884Z,2.17
2023-05-04T10:29:51.183Z,2.17
2023-05-04T10:32:22.336Z,2.10
2023-05-04T10:34:51.237Z,1.77
2023-05-04T10:37:21.971Z,2.30
2023-05-04T10:39:55.172Z,1.93
2023-05-04T10:42:24.307Z,2.60
2023-05-04T10:44:55.457Z,1.90
2023-05-04T10:47:33.707Z,2.20
2023-05-04T10:50:04.221Z,2.10
2023-05-04T10:52:33.478Z,1.60
2023-05-04T10:55:03.277Z,2.07
2023-05-04T10:57:32.332Z,2.10
2023-05-04T11:00:02.099Z,1.90
2023-05-04T11:02:34.340Z,2.00
2023-05-04T11:05:05.598Z,1.80
2023-05-04T11:07:37.173Z,2.00
2023-05-04T11:10:06.614Z,2.00
2023-05-04T11:12:35.829Z,2.07
2023-05-04T11:15:09.190Z,2.17
2023-05-04T11:17:48.991Z,1.93
2023-05-04T11:20:24.801Z,2.30
2023-05-04T11:22:54.134Z,1.80
2023-05-04T11:25:28.954Z,2.53
2023-05-04T11:27:57.694Z,1.67
2023-05-04T11:31:21.947Z,1.83
2023-05-04T11:34:14.239Z,1.90
2023-05-04T11:36:42.826Z,1.70
2023-05-04T11:39:11.911Z,1.90
2023-05-04T11:41:40.680Z,1.90
2023-05-04T11:44:10.417Z,1.90
2023-05-04T11:46:39.204Z,1.90
2023-05-04T11:49:09.390Z,1.80
2023-05-04T11:51:38.313Z,1.70
2023-05-04T11:54:07.442Z,1.93
2023-05-04T11:56:43.554Z,1.97
2023-05-04T11:59:12.029Z,1.70
2023-05-04T12:01:40.625Z,1.73
2023-05-04T12:04:11.337Z,1.80
2023-05-04T12:06:41.081Z,1.47
2023-05-04T12:09:10.103Z,1.53
2023-05-04T12:11:40.948Z,1.53
2023-05-04T12:14:12.017Z,1.73
2023-05-04T12:16:43.320Z,1.60
2023-05-04T12:19:14.560Z,1.80
2023-05-04T12:21:52.025Z,1.60
2023-05-04T12:24:23.196Z,1.60
2023-05-04T12:26:52.620Z,1.73
2023-05-04T12:29:21.698Z,1.67
2023-05-04T12:31:51.850Z,1.90
2023-05-04T12:34:23.790Z,1.50
2023-05-04T12:36:52.953Z,1.70
2023-05-04T12:39:22.330Z,1.50
2023-05-04T12:41:50.829Z,1.60
2023-05-04T12:44:19.459Z,1.47
2023-05-04T12:46:47.965Z,1.50
2023-05-04T12:49:16.969Z,1.80
2023-05-04T12:51:48.658Z,1.37
2023-05-04T12:54:17.248Z,1.60
2023-05-04T12:56:46.008Z,1.60
2023-05-04T12:59:14.453Z,1.60
2023-05-04T13:01:43.005Z,1.70
2023-05-04T13:04:11.522Z,1.50
2023-05-04T13:06:40.161Z,1.50
2023-05-04T13:09:10.275Z,1.40
2023-05-04T13:11:42.368Z,1.30
2023-05-04T13:14:11.080Z,1.47
2023-05-04T13:16:40.545Z,1.40
2023-05-04T13:19:09.239Z,1.67
2023-05-04T13:21:40.797Z,1.37
2023-05-04T13:24:11.811Z,1.73
2023-05-04T13:26:41.313Z,1.33
2023-05-04T13:29:10.286Z,1.40
2023-05-04T13:31:44.840Z,1.50
2023-05-04T13:34:13.902Z,1.87
2023-05-04T13:36:42.976Z,1.80
2023-05-04T13:39:13.362Z,1.67
2023-05-04T13:41:41.841Z,1.40
2023-05-04T13:44:11.362Z,1.67
2023-05-04T13:46:40.841Z,1.60
2023-05-04T13:49:09.919Z,1.30
2023-05-04T13:51:39.431Z,1.40
2023-05-04T13:54:08.996Z,1.80
2023-05-04T13:56:39.158Z,1.43
2023-05-04T13:59:07.638Z,1.80
2023-05-04T14:01:36.225Z,1.50
2023-05-04T14:04:04.830Z,1.53
2023-05-04T14:06:33.271Z,1.50
2023-05-04T14:09:01.752Z,1.60
2023-05-04T14:11:30.884Z,1.63
2023-05-04T14:14:00.787Z,1.70
2023-05-04T14:16:29.565Z,1.67
2023-05-04T14:18:58.412Z,1.70
2023-05-04T14:21:27.034Z,1.63
2023-05-04T14:24:01.254Z,1.70
2023-05-04T14:26:29.745Z,1.33
2023-05-04T14:28:58.552Z,1.60
2023-05-04T14:31:28.543Z,1.70
2023-05-04T14:33:57.220Z,1.60
2023-05-04T14:36:25.629Z,1.63
2023-05-04T14:38:54.064Z,1.50
2023-05-04T14:41:22.447Z,1.90
2023-05-04T14:43:51.007Z,1.60
2023-05-04T14:46:19.604Z,1.70
2023-05-04T14:48:49.797Z,1.40
2023-05-04T14:51:24.045Z,2.60
2023-05-04T14:53:52.646Z,1.40
2023-05-04T14:56:21.137Z,1.70
2023-05-04T14:58:50.070Z,1.27
2023-05-04T15:01:18.682Z,2.10
2023-05-04T15:03:47.215Z,1.80
2023-05-04T15:06:17.116Z,1.57
2023-05-04T15:08:45.614Z,1.60
2023-05-04T15:11:14.025Z,1.40
2023-05-04T15:13:44.893Z,1.33
2023-05-04T15:16:18.123Z,1.50
2023-05-04T15:18:46.541Z,1.40
2023-05-04T15:21:16.679Z,2.10
2023-05-04T15:23:45.476Z,2.37
2023-05-04T15:26:14.058Z,1.50
2023-05-04T15:28:42.462Z,1.20
2023-05-04T15:31:12.661Z,1.30
2023-05-04T15:33:41.459Z,1.60
2023-05-04T15:36:10.839Z,1.73
2023-05-04T15:38:40.845Z,1.37
2023-05-04T15:41:09.262Z,1.50
2023-05-04T15:43:37.787Z,1.70
2023-05-04T15:46:06.421Z,1.50
2023-05-04T15:48:34.904Z,1.60
2023-05-04T15:51:03.733Z,1.80
2023-05-04T15:53:32.307Z,1.77
2023-05-04T15:56:04.024Z,1.40
2023-05-04T15:58:34.408Z,1.57
2023-05-04T16:01:04.406Z,1.50
2023-05-04T16:03:33.791Z,1.57
2023-05-04T16:06:02.531Z,1.57
2023-05-04T16:08:30.977Z,1.73
2023-05-04T16:10:59.352Z,1.80
2023-05-04T16:13:29.611Z,1.63
2023-05-04T16:15:58.190Z,1.60
2023-05-04T16:18:26.683Z,1.67
2023-05-04T16:20:55.772Z,1.53
2023-05-04T16:23:24.442Z,1.70
2023-05-04T16:25:53.251Z,1.70
2023-05-04T16:28:22.069Z,1.80
2023-05-04T16:30:52.214Z,1.87
2023-05-04T16:33:21.191Z,1.77
2023-05-04T16:35:49.814Z,1.43
2023-05-04T16:38:19.680Z,1.60
2023-05-04T16:40:48.295Z,1.60
2023-05-04T16:43:16.855Z,1.50
2023-05-04T16:45:45.853Z,1.67
2023-05-04T16:48:16.199Z,1.50
2023-05-04T16:50:44.994Z,1.30
2023-05-04T16:53:13.566Z,1.60
2023-05-04T16:55:42.372Z,1.90
2023-05-04T16:58:11.359Z,1.60
2023-05-04T17:00:43.053Z,1.90
2023-05-04T17:03:11.775Z,2.10
2023-05-04T17:05:41.752Z,1.90
2023-05-04T17:08:11.566Z,1.90
2023-05-04T17:10:40.129Z,2.13
2023-05-04T17:13:09.054Z,2.00
2023-05-04T17:15:37.721Z,2.13
2023-05-04T17:18:07.136Z,2.00
2023-05-04T17:20:36.111Z,2.20
2023-05-04T17:23:06.682Z,1.70
2023-05-04T17:25:35.552Z,2.00
2023-05-04T17:28:04.562Z,1.60
2023-05-04T17:30:35.871Z,1.70
2023-05-04T17:33:04.557Z,1.80
2023-05-04T17:35:33.081Z,2.00
2023-05-04T17:38:02.384Z,1.80
2023-05-04T17:40:34.356Z,1.70
2023-05-04T17:43:03.477Z,1.87
2023-05-04T17:45:31.966Z,1.80
2023-05-04T17:48:00.846Z,1.53
2023-05-04T17:50:29.418Z,1.60
2023-05-04T17:52:59.428Z,1.80
2023-05-04T17:55:28.038Z,1.90
2023-05-04T17:57:58.153Z,1.50
2023-05-04T18:00:26.707Z,1.67
2023-05-04T18:02:55.403Z,1.90
2023-05-04T18:05:25.268Z,2.27
2023-05-04T18:07:54.066Z,1.90
2023-05-04T18:10:22.619Z,2.60
2023-05-04T18:12:51.272Z,2.00
2023-05-04T18:15:21.509Z,1.97
2023-05-04T18:17:51.528Z,2.33
2023-05-04T18:20:20.302Z,2.23
2023-05-04T18:22:48.858Z,42.20
2023-05-04T18:25:17.321Z,82.57
2023-05-04T18:27:45.938Z,74.37
2023-05-04T18:30:14.626Z,51.93
2023-05-04T18:32:44.482Z,54.93
2023-05-04T18:35:13.065Z,58.13
2023-05-04T18:37:41.866Z,50.60
2023-05-04T18:40:11.413Z,40.70
2023-05-04T18:42:39.933Z,34.77
2023-05-04T18:45:10.565Z,33.80
2023-05-04T18:47:38.992Z,33.27
2023-05-04T18:50:12.712Z,33.13
2023-05-04T18:52:41.454Z,29.80
2023-05-04T18:55:10.399Z,28.23
2023-05-04T18:57:42.103Z,29.00
2023-05-04T19:00:12.081Z,24.97
2023-05-04T19:02:41.006Z,22.73
2023-05-04T19:05:14.297Z,21.33
2023-05-04T19:07:43.519Z,22.10
2023-05-04T19:10:12.376Z,20.57
2023-05-04T19:12:40.945Z,19.90
2023-05-04T19:15:10.574Z,19.70
2023-05-04T19:17:39.211Z,20.93
2023-05-04T19:20:09.295Z,17.97
2023-05-04T19:22:39.246Z,20.07
2023-05-04T19:25:08.450Z,20.57
2023-05-04T19:27:36.913Z,21.73
2023-05-04T19:30:06.194Z,28.87
2023-05-04T19:32:34.934Z,28.17
2023-05-04T19:35:03.689Z,18.67
2023-05-04T19:37:32.945Z,12.73
2023-05-04T19:40:03.100Z,18.77
2023-05-04T19:42:31.960Z,25.43
2023-05-04T19:45:00.654Z,34.20
2023-05-04T19:47:30.084Z,33.87
2023-05-04T19:49:58.616Z,37.07
2023-05-04T19:52:27.147Z,40.57
2023-05-04T19:54:55.732Z,38.60
2023-05-04T19:57:25.578Z,38.03
2023-05-04T19:59:55.965Z,32.90
2023-05-04T20:02:24.678Z,32.73
2023-05-04T20:04:53.690Z,32.90
2023-05-04T20:07:22.328Z,27.77
2023-05-04T20:09:50.818Z,23.37
2023-05-04T20:12:19.821Z,23.70
2023-05-04T20:14:49.762Z,19.50
2023-05-04T20:17:18.387Z,17.23
2023-05-04T20:19:47.756Z,18.17
2023-05-04T20:22:16.635Z,22.57
2023-05-04T20:24:45.323Z,21.17
2023-05-04T20:27:13.959Z,18.57
2023-05-04T20:29:42.847Z,19.17
2023-05-04T20:32:13.469Z,17.27
2023-05-04T20:34:43.403Z,18.80
2023-05-04T20:37:13.377Z,18.33
2023-05-04T20:39:41.968Z,17.10
2023-05-04T20:42:10.511Z,15.50
2023-05-04T20:44:42.646Z,15.00
2023-05-04T20:47:12.744Z,16.30
2023-05-04T20:49:41.279Z,15.60
2023-05-04T20:52:09.765Z,15.53
2023-05-04T20:54:38.212Z,15.33
2023-05-04T20:57:06.834Z,15.70
2023-05-04T20:59:36.045Z,15.67
2023-05-04T21:02:04.688Z,15.33
2023-05-04T21:04:34.840Z,15.70
2023-05-04T21:07:03.299Z,14.67
2023-05-04T21:09:32.479Z,15.57
2023-05-04T21:12:01.119Z,15.63
2023-05-04T21:14:29.816Z,21.30
2023-05-04T21:16:58.315Z,19.70
2023-05-04T21:19:26.789Z,20.10
2023-05-04T21:21:57.117Z,26.07
2023-05-04T21:24:25.583Z,28.83
2023-05-04T21:26:54.286Z,33.00
2023-05-04T21:29:22.815Z,35.33
2023-05-04T21:31:51.728Z,28.20
2023-05-04T21:34:20.286Z,21.93
2023-05-04T21:36:51.235Z,18.97
2023-05-04T21:39:21.856Z,15.17
2023-05-04T21:41:50.370Z,14.63
2023-05-04T21:44:18.919Z,12.40
2023-05-04T21:46:47.532Z,10.57
2023-05-04T21:49:16.017Z,10.27
2023-05-04T21:51:44.516Z,8.97
2023-05-04T21:54:12.943Z,9.33
2023-05-04T21:56:43.793Z,8.87
2023-05-04T21:59:12.185Z,9.43
2023-05-04T22:01:40.700Z,10.07
2023-05-04T22:04:09.809Z,8.87
2023-05-04T22:06:38.801Z,10.10
2023-05-04T22:09:07.368Z,12.13
2023-05-04T22:11:36.041Z,16.47
2023-05-04T22:14:05.966Z,15.83
2023-05-04T22:16:34.737Z,15.97
2023-05-04T22:19:03.558Z,16.87
2023-05-04T22:21:32.960Z,19.90
2023-05-04T22:24:01.581Z,15.63
2023-05-04T22:26:30.581Z,16.33
2023-05-04T22:28:59.069Z,12.93
2023-05-04T22:31:29.373Z,10.43
2023-05-04T22:33:57.886Z,9.77
2023-05-04T22:36:26.516Z,8.63
2023-05-04T22:38:55.066Z,8.63
2023-05-04T22:41:23.914Z,9.70
2023-05-04T22:43:52.431Z,8.83
2023-05-04T22:46:21.038Z,10.27
2023-05-04T22:48:50.914Z,14.33
2023-05-04T22:51:19.388Z,13.47
2023-05-04T22:53:47.981Z,14.07
2023-05-04T22:56:16.407Z,15.20
2023-05-04T22:58:46.796Z,18.70
2023-05-04T23:01:15.378Z,18.73
2023-05-04T23:03:44.957Z,17.70
2023-05-04T23:06:15.445Z,19.90
2023-05-04T23:08:45.572Z,21.67
2023-05-04T23:11:14.041Z,22.37
2023-05-04T23:13:42.844Z,23.23
2023-05-04T23:16:11.340Z,21.23
2023-05-04T23:18:39.899Z,15.47
2023-05-04T23:21:08.403Z,13.53
2023-05-04T23:23:38.937Z,14.20
2023-05-04T23:26:07.423Z,15.53
2023-05-04T23:28:35.927Z,15.37
2023-05-04T23:31:04.601Z,14.30
2023-05-04T23:33:33.181Z,13.60
2023-05-04T23:36:02.142Z,12.23
2023-05-04T23:38:30.708Z,11.27
2023-05-04T23:41:02.728Z,12.90
2023-05-04T23:43:32.271Z,11.93
2023-05-04T23:46:02.220Z,12.03
2023-05-04T23:48:30.965Z,11.60
2023-05-04T23:51:04.041Z,10.37
2023-05-04T23:53:33.865Z,11.53
2023-05-04T23:56:06.740Z,11.80
2023-05-04T23:58:36.164Z,11.13
